sensor_id;sensor_type;location;lat;lon;timestamp;P1;durP1;ratioP1;P2;durP2;ratioP2
20734;SDS011;10528;52.124;5.196;2023-06-22T00:00:01;5.13;;;3.20;;
20734;SDS011;10528;52.124;5.196;2023-06-22T00:02:37;5.60;;;3.35;;
20734;SDS011;10528;52.124;5.196;2023-06-22T00:05:04;6.72;;;3.72;;
20734;SDS011;10528;52.124;5.196;2023-06-22T00:07:31;4.22;;;3.08;;
20734;SDS011;10528;52.124;5.196;2023-06-22T00:09:58;4.15;;;3.10;;
20734;SDS011;10528;52.124;5.196;2023-06-22T00:12:25;4.45;;;2.80;;
20734;SDS011;10528;52.124;5.196;2023-06-22T00:14:52;3.80;;;2.78;;
20734;SDS011;10528;52.124;5.196;2023-06-22T00:17:19;7.30;;;3.13;;
20734;SDS011;10528;52.124;5.196;2023-06-22T00:19:49;6.13;;;3.30;;
20734;SDS011;10528;52.124;5.196;2023-06-22T00:22:19;4.90;;;3.20;;
20734;SDS011;10528;52.124;5.196;2023-06-22T00:24:55;4.60;;;3.60;;
20734;SDS011;10528;52.124;5.196;2023-06-22T00:27:22;4.28;;;3.08;;
20734;SDS011;10528;52.124;5.196;2023-06-22T00:29:49;5.07;;;3.13;;
20734;SDS011;10528;52.124;5.196;2023-06-22T00:32:16;4.10;;;2.90;;
20734;SDS011;10528;52.124;5.196;2023-06-22T00:34:46;4.55;;;3.35;;
20734;SDS011;10528;52.124;5.196;2023-06-22T00:37:13;4.70;;;3.70;;
20734;SDS011;10528;52.124;5.196;2023-06-22T00:39:40;5.43;;;3.28;;
20734;SDS011;10528;52.124;5.196;2023-06-22T00:42:10;4.88;;;3.33;;
20734;SDS011;10528;52.124;5.196;2023-06-22T00:44:37;4.35;;;3.47;;
20734;SDS011;10528;52.124;5.196;2023-06-22T00:47:04;5.55;;;3.55;;
20734;SDS011;10528;52.124;5.196;2023-06-22T00:49:32;3.80;;;3.30;;
20734;SDS011;10528;52.124;5.196;2023-06-22T00:51:59;4.20;;;3.47;;
20734;SDS011;10528;52.124;5.196;2023-06-22T00:54:27;5.53;;;3.88;;
20734;SDS011;10528;52.124;5.196;2023-06-22T00:56:55;6.82;;;4.40;;
20734;SDS011;10528;52.124;5.196;2023-06-22T00:59:23;5.60;;;4.20;;
20734;SDS011;10528;52.124;5.196;2023-06-22T01:01:52;7.18;;;4.15;;
20734;SDS011;10528;52.124;5.196;2023-06-22T01:04:19;5.85;;;4.25;;
20734;SDS011;10528;52.124;5.196;2023-06-22T01:06:53;4.93;;;3.70;;
20734;SDS011;10528;52.124;5.196;2023-06-22T01:09:51;6.00;;;3.92;;
20734;SDS011;10528;52.124;5.196;2023-06-22T01:12:51;6.57;;;3.92;;
20734;SDS011;10528;52.124;5.196;2023-06-22T01:15:28;6.60;;;3.78;;
20734;SDS011;10528;52.124;5.196;2023-06-22T01:18:03;5.88;;;3.70;;
20734;SDS011;10528;52.124;5.196;2023-06-22T01:20:35;4.60;;;3.13;;
20734;SDS011;10528;52.124;5.196;2023-06-22T01:28:48;7.43;;;4.07;;
20734;SDS011;10528;52.124;5.196;2023-06-22T01:31:23;6.45;;;3.88;;
20734;SDS011;10528;52.124;5.196;2023-06-22T01:33:57;5.78;;;3.50;;
20734;SDS011;10528;52.124;5.196;2023-06-22T01:36:28;8.35;;;4.40;;
20734;SDS011;10528;52.124;5.196;2023-06-22T01:38:57;6.75;;;4.68;;
20734;SDS011;10528;52.124;5.196;2023-06-22T01:41:26;6.40;;;4.07;;
20734;SDS011;10528;52.124;5.196;2023-06-22T01:43:55;5.07;;;4.47;;
20734;SDS011;10528;52.124;5.196;2023-06-22T01:46:23;5.97;;;4.43;;
20734;SDS011;10528;52.124;5.196;2023-06-22T01:48:50;4.82;;;3.88;;
20734;SDS011;10528;52.124;5.196;2023-06-22T01:51:17;6.25;;;4.53;;
20734;SDS011;10528;52.124;5.196;2023-06-22T01:53:44;6.68;;;4.50;;
20734;SDS011;10528;52.124;5.196;2023-06-22T01:56:15;6.32;;;4.55;;
20734;SDS011;10528;52.124;5.196;2023-06-22T01:59:04;5.32;;;4.38;;
20734;SDS011;10528;52.124;5.196;2023-06-22T02:01:54;6.88;;;4.70;;
20734;SDS011;10528;52.124;5.196;2023-06-22T02:04:44;6.03;;;4.15;;
20734;SDS011;10528;52.124;5.196;2023-06-22T02:07:20;7.53;;;4.40;;
20734;SDS011;10528;52.124;5.196;2023-06-22T02:09:52;6.93;;;4.78;;
20734;SDS011;10528;52.124;5.196;2023-06-22T02:12:25;7.90;;;5.05;;
20734;SDS011;10528;52.124;5.196;2023-06-22T02:14:55;7.57;;;5.20;;
20734;SDS011;10528;52.124;5.196;2023-06-22T02:17:24;8.25;;;4.90;;
20734;SDS011;10528;52.124;5.196;2023-06-22T02:19:52;6.93;;;5.05;;
20734;SDS011;10528;52.124;5.196;2023-06-22T02:22:20;9.00;;;5.43;;
20734;SDS011;10528;52.124;5.196;2023-06-22T02:24:47;6.28;;;4.93;;
20734;SDS011;10528;52.124;5.196;2023-06-22T02:27:13;6.13;;;4.72;;
20734;SDS011;10528;52.124;5.196;2023-06-22T02:29:40;6.05;;;4.90;;
20734;SDS011;10528;52.124;5.196;2023-06-22T02:32:08;6.63;;;4.90;;
20734;SDS011;10528;52.124;5.196;2023-06-22T02:34:35;6.93;;;5.18;;
20734;SDS011;10528;52.124;5.196;2023-06-22T02:37:03;6.15;;;4.85;;
20734;SDS011;10528;52.124;5.196;2023-06-22T02:39:31;7.00;;;5.15;;
20734;SDS011;10528;52.124;5.196;2023-06-22T02:41:57;6.40;;;4.90;;
20734;SDS011;10528;52.124;5.196;2023-06-22T02:44:24;6.80;;;5.30;;
20734;SDS011;10528;52.124;5.196;2023-06-22T02:46:51;6.40;;;4.82;;
20734;SDS011;10528;52.124;5.196;2023-06-22T02:49:20;7.30;;;5.38;;
20734;SDS011;10528;52.124;5.196;2023-06-22T02:51:48;8.05;;;5.47;;
20734;SDS011;10528;52.124;5.196;2023-06-22T02:54:18;8.02;;;5.82;;
20734;SDS011;10528;52.124;5.196;2023-06-22T02:56:48;7.30;;;4.82;;
20734;SDS011;10528;52.124;5.196;2023-06-22T02:59:17;7.18;;;5.18;;
20734;SDS011;10528;52.124;5.196;2023-06-22T03:01:47;7.63;;;5.60;;
20734;SDS011;10528;52.124;5.196;2023-06-22T03:04:19;7.22;;;5.50;;
20734;SDS011;10528;52.124;5.196;2023-06-22T03:06:46;7.00;;;5.07;;
20734;SDS011;10528;52.124;5.196;2023-06-22T03:09:17;8.52;;;6.43;;
20734;SDS011;10528;52.124;5.196;2023-06-22T03:11:44;7.97;;;6.07;;
20734;SDS011;10528;52.124;5.196;2023-06-22T03:14:11;7.90;;;5.82;;
20734;SDS011;10528;52.124;5.196;2023-06-22T03:16:38;7.72;;;5.72;;
20734;SDS011;10528;52.124;5.196;2023-06-22T03:19:06;7.15;;;5.80;;
20734;SDS011;10528;52.124;5.196;2023-06-22T03:21:33;11.07;;;6.28;;
20734;SDS011;10528;52.124;5.196;2023-06-22T03:24:00;9.40;;;6.07;;
20734;SDS011;10528;52.124;5.196;2023-06-22T03:26:27;7.97;;;6.00;;
20734;SDS011;10528;52.124;5.196;2023-06-22T03:28:56;8.10;;;5.63;;
20734;SDS011;10528;52.124;5.196;2023-06-22T03:31:23;8.20;;;5.30;;
20734;SDS011;10528;52.124;5.196;2023-06-22T03:33:51;7.93;;;6.10;;
20734;SDS011;10528;52.124;5.196;2023-06-22T03:36:18;7.63;;;5.57;;
20734;SDS011;10528;52.124;5.196;2023-06-22T03:38:46;7.30;;;5.53;;
20734;SDS011;10528;52.124;5.196;2023-06-22T03:41:15;8.85;;;5.78;;
20734;SDS011;10528;52.124;5.196;2023-06-22T03:43:43;7.78;;;5.95;;
20734;SDS011;10528;52.124;5.196;2023-06-22T03:46:10;9.05;;;6.18;;
20734;SDS011;10528;52.124;5.196;2023-06-22T03:48:37;7.57;;;5.85;;
20734;SDS011;10528;52.124;5.196;2023-06-22T03:51:05;9.38;;;6.32;;
20734;SDS011;10528;52.124;5.196;2023-06-22T03:53:32;10.02;;;6.43;;
20734;SDS011;10528;52.124;5.196;2023-06-22T03:55:59;9.13;;;6.18;;
20734;SDS011;10528;52.124;5.196;2023-06-22T03:58:26;7.82;;;6.03;;
20734;SDS011;10528;52.124;5.196;2023-06-22T04:00:59;7.70;;;6.38;;
20734;SDS011;10528;52.124;5.196;2023-06-22T04:03:26;10.55;;;6.60;;
20734;SDS011;10528;52.124;5.196;2023-06-22T04:05:53;11.80;;;7.57;;
20734;SDS011;10528;52.124;5.196;2023-06-22T04:08:20;10.18;;;7.85;;
20734;SDS011;10528;52.124;5.196;2023-06-22T04:10:47;13.18;;;9.55;;
20734;SDS011;10528;52.124;5.196;2023-06-22T04:13:14;14.23;;;9.88;;
20734;SDS011;10528;52.124;5.196;2023-06-22T04:15:41;10.95;;;9.15;;
20734;SDS011;10528;52.124;5.196;2023-06-22T04:18:08;14.57;;;9.77;;
20734;SDS011;10528;52.124;5.196;2023-06-22T04:20:35;15.55;;;9.80;;
20734;SDS011;10528;52.124;5.196;2023-06-22T04:23:03;12.40;;;9.98;;
20734;SDS011;10528;52.124;5.196;2023-06-22T04:25:30;18.90;;;11.15;;
20734;SDS011;10528;52.124;5.196;2023-06-22T04:27:57;14.70;;;11.27;;
20734;SDS011;10528;52.124;5.196;2023-06-22T04:30:24;14.68;;;11.20;;
20734;SDS011;10528;52.124;5.196;2023-06-22T04:32:51;18.33;;;11.90;;
20734;SDS011;10528;52.124;5.196;2023-06-22T04:35:24;15.48;;;12.02;;
20734;SDS011;10528;52.124;5.196;2023-06-22T04:37:52;16.67;;;11.35;;
20734;SDS011;10528;52.124;5.196;2023-06-22T04:40:22;15.75;;;11.95;;
20734;SDS011;10528;52.124;5.196;2023-06-22T04:42:50;14.00;;;11.32;;
20734;SDS011;10528;52.124;5.196;2023-06-22T04:45:20;16.58;;;11.80;;
20734;SDS011;10528;52.124;5.196;2023-06-22T04:47:47;14.43;;;11.77;;
20734;SDS011;10528;52.124;5.196;2023-06-22T04:50:15;17.92;;;12.40;;
20734;SDS011;10528;52.124;5.196;2023-06-22T04:52:44;16.13;;;12.38;;
20734;SDS011;10528;52.124;5.196;2023-06-22T04:55:12;16.75;;;12.45;;
20734;SDS011;10528;52.124;5.196;2023-06-22T04:57:41;16.27;;;12.50;;
20734;SDS011;10528;52.124;5.196;2023-06-22T05:00:11;15.77;;;12.15;;
20734;SDS011;10528;52.124;5.196;2023-06-22T05:02:40;14.68;;;11.77;;
20734;SDS011;10528;52.124;5.196;2023-06-22T05:05:07;16.00;;;12.65;;
20734;SDS011;10528;52.124;5.196;2023-06-22T05:07:35;16.63;;;12.55;;
20734;SDS011;10528;52.124;5.196;2023-06-22T05:10:03;15.60;;;10.73;;
20734;SDS011;10528;52.124;5.196;2023-06-22T05:12:31;17.42;;;12.95;;
20734;SDS011;10528;52.124;5.196;2023-06-22T05:15:03;17.52;;;12.82;;
20734;SDS011;10528;52.124;5.196;2023-06-22T05:17:30;18.50;;;12.75;;
20734;SDS011;10528;52.124;5.196;2023-06-22T05:19:57;18.27;;;13.38;;
20734;SDS011;10528;52.124;5.196;2023-06-22T05:22:25;15.55;;;12.07;;
20734;SDS011;10528;52.124;5.196;2023-06-22T05:24:52;15.20;;;12.63;;
20734;SDS011;10528;52.124;5.196;2023-06-22T05:27:22;18.20;;;14.07;;
20734;SDS011;10528;52.124;5.196;2023-06-22T05:29:49;20.58;;;13.68;;
20734;SDS011;10528;52.124;5.196;2023-06-22T05:32:16;19.83;;;14.63;;
20734;SDS011;10528;52.124;5.196;2023-06-22T05:34:43;19.83;;;14.95;;
20734;SDS011;10528;52.124;5.196;2023-06-22T05:37:10;17.40;;;14.02;;
20734;SDS011;10528;52.124;5.196;2023-06-22T05:39:37;20.00;;;14.93;;
20734;SDS011;10528;52.124;5.196;2023-06-22T05:42:05;17.92;;;14.50;;
20734;SDS011;10528;52.124;5.196;2023-06-22T05:44:36;18.52;;;14.43;;
20734;SDS011;10528;52.124;5.196;2023-06-22T05:47:05;17.70;;;14.68;;
20734;SDS011;10528;52.124;5.196;2023-06-22T05:49:32;18.25;;;14.23;;
20734;SDS011;10528;52.124;5.196;2023-06-22T05:51:59;18.98;;;15.07;;
20734;SDS011;10528;52.124;5.196;2023-06-22T05:54:27;18.75;;;14.30;;
20734;SDS011;10528;52.124;5.196;2023-06-22T05:56:55;18.42;;;15.15;;
20734;SDS011;10528;52.124;5.196;2023-06-22T05:59:22;18.88;;;15.38;;
20734;SDS011;10528;52.124;5.196;2023-06-22T06:01:49;20.20;;;15.60;;
20734;SDS011;10528;52.124;5.196;2023-06-22T06:04:18;19.75;;;16.00;;
20734;SDS011;10528;52.124;5.196;2023-06-22T06:06:46;21.48;;;16.05;;
20734;SDS011;10528;52.124;5.196;2023-06-22T06:09:15;18.83;;;15.95;;
20734;SDS011;10528;52.124;5.196;2023-06-22T06:11:46;18.55;;;16.38;;
20734;SDS011;10528;52.124;5.196;2023-06-22T06:14:13;23.55;;;18.73;;
20734;SDS011;10528;52.124;5.196;2023-06-22T06:16:40;21.08;;;16.95;;
20734;SDS011;10528;52.124;5.196;2023-06-22T06:19:07;23.00;;;16.75;;
20734;SDS011;10528;52.124;5.196;2023-06-22T06:21:34;24.50;;;18.58;;
20734;SDS011;10528;52.124;5.196;2023-06-22T06:24:01;20.73;;;16.45;;
20734;SDS011;10528;52.124;5.196;2023-06-22T06:26:28;23.40;;;17.52;;
20734;SDS011;10528;52.124;5.196;2023-06-22T06:28:56;21.15;;;16.48;;
20734;SDS011;10528;52.124;5.196;2023-06-22T06:31:24;23.73;;;17.55;;
20734;SDS011;10528;52.124;5.196;2023-06-22T06:33:51;27.70;;;17.70;;
20734;SDS011;10528;52.124;5.196;2023-06-22T06:36:18;22.13;;;17.38;;
20734;SDS011;10528;52.124;5.196;2023-06-22T06:38:44;24.33;;;17.40;;
20734;SDS011;10528;52.124;5.196;2023-06-22T06:41:14;18.98;;;15.68;;
20734;SDS011;10528;52.124;5.196;2023-06-22T06:43:42;18.15;;;16.13;;
20734;SDS011;10528;52.124;5.196;2023-06-22T06:46:09;22.85;;;18.40;;
20734;SDS011;10528;52.124;5.196;2023-06-22T06:48:37;21.55;;;17.17;;
20734;SDS011;10528;52.124;5.196;2023-06-22T06:51:04;19.00;;;15.65;;
20734;SDS011;10528;52.124;5.196;2023-06-22T06:53:31;20.45;;;16.30;;
20734;SDS011;10528;52.124;5.196;2023-06-22T06:55:58;23.02;;;17.50;;
20734;SDS011;10528;52.124;5.196;2023-06-22T06:58:25;21.00;;;16.00;;
20734;SDS011;10528;52.124;5.196;2023-06-22T07:00:52;18.08;;;14.40;;
20734;SDS011;10528;52.124;5.196;2023-06-22T07:03:19;19.23;;;15.60;;
20734;SDS011;10528;52.124;5.196;2023-06-22T07:05:46;18.60;;;13.75;;
20734;SDS011;10528;52.124;5.196;2023-06-22T07:08:12;19.48;;;13.45;;
20734;SDS011;10528;52.124;5.196;2023-06-22T07:10:39;18.58;;;14.75;;
20734;SDS011;10528;52.124;5.196;2023-06-22T07:13:06;18.13;;;14.27;;
20734;SDS011;10528;52.124;5.196;2023-06-22T07:15:33;16.52;;;13.77;;
20734;SDS011;10528;52.124;5.196;2023-06-22T07:18:00;18.45;;;15.65;;
20734;SDS011;10528;52.124;5.196;2023-06-22T07:20:27;16.73;;;13.32;;
20734;SDS011;10528;52.124;5.196;2023-06-22T07:22:54;19.90;;;14.43;;
20734;SDS011;10528;52.124;5.196;2023-06-22T07:25:21;16.23;;;13.43;;
20734;SDS011;10528;52.124;5.196;2023-06-22T07:27:58;16.98;;;15.02;;
20734;SDS011;10528;52.124;5.196;2023-06-22T07:30:28;18.30;;;14.48;;
20734;SDS011;10528;52.124;5.196;2023-06-22T07:32:58;20.58;;;14.70;;
20734;SDS011;10528;52.124;5.196;2023-06-22T07:35:30;17.45;;;14.85;;
20734;SDS011;10528;52.124;5.196;2023-06-22T07:37:57;19.42;;;13.95;;
20734;SDS011;10528;52.124;5.196;2023-06-22T07:40:24;14.10;;;12.52;;
20734;SDS011;10528;52.124;5.196;2023-06-22T07:42:51;17.40;;;14.93;;
20734;SDS011;10528;52.124;5.196;2023-06-22T07:45:19;16.80;;;14.18;;
20734;SDS011;10528;52.124;5.196;2023-06-22T07:47:46;17.65;;;14.30;;
20734;SDS011;10528;52.124;5.196;2023-06-22T07:50:13;16.45;;;13.75;;
20734;SDS011;10528;52.124;5.196;2023-06-22T07:52:40;15.65;;;12.35;;
20734;SDS011;10528;52.124;5.196;2023-06-22T07:55:07;16.40;;;12.93;;
20734;SDS011;10528;52.124;5.196;2023-06-22T07:57:34;14.10;;;12.60;;
20734;SDS011;10528;52.124;5.196;2023-06-22T08:00:03;14.43;;;12.20;;
20734;SDS011;10528;52.124;5.196;2023-06-22T08:02:42;15.38;;;13.07;;
20734;SDS011;10528;52.124;5.196;2023-06-22T08:05:13;16.05;;;12.45;;
20734;SDS011;10528;52.124;5.196;2023-06-22T08:07:44;14.23;;;11.82;;
20734;SDS011;10528;52.124;5.196;2023-06-22T08:10:14;14.18;;;11.20;;
20734;SDS011;10528;52.124;5.196;2023-06-22T08:12:41;15.48;;;12.68;;
20734;SDS011;10528;52.124;5.196;2023-06-22T08:15:09;15.45;;;12.57;;
20734;SDS011;10528;52.124;5.196;2023-06-22T08:17:37;16.42;;;13.40;;
20734;SDS011;10528;52.124;5.196;2023-06-22T08:20:05;12.95;;;11.32;;
20734;SDS011;10528;52.124;5.196;2023-06-22T08:22:40;12.80;;;11.43;;
20734;SDS011;10528;52.124;5.196;2023-06-22T08:25:08;15.55;;;11.30;;
20734;SDS011;10528;52.124;5.196;2023-06-22T08:27:37;12.88;;;11.00;;
20734;SDS011;10528;52.124;5.196;2023-06-22T08:30:04;11.90;;;9.63;;
20734;SDS011;10528;52.124;5.196;2023-06-22T08:32:33;11.45;;;7.97;;
20734;SDS011;10528;52.124;5.196;2023-06-22T08:35:01;10.60;;;7.97;;
20734;SDS011;10528;52.124;5.196;2023-06-22T08:37:28;11.55;;;10.32;;
20734;SDS011;10528;52.124;5.196;2023-06-22T08:40:02;12.23;;;7.95;;
20734;SDS011;10528;52.124;5.196;2023-06-22T08:42:34;10.18;;;7.65;;
20734;SDS011;10528;52.124;5.196;2023-06-22T08:45:02;9.50;;;7.40;;
20734;SDS011;10528;52.124;5.196;2023-06-22T08:47:29;9.27;;;8.18;;
20734;SDS011;10528;52.124;5.196;2023-06-22T08:49:56;11.70;;;8.05;;
20734;SDS011;10528;52.124;5.196;2023-06-22T08:52:23;8.63;;;7.70;;
20734;SDS011;10528;52.124;5.196;2023-06-22T08:54:50;7.43;;;6.00;;
20734;SDS011;10528;52.124;5.196;2023-06-22T08:57:17;8.20;;;5.57;;
20734;SDS011;10528;52.124;5.196;2023-06-22T08:59:44;7.28;;;5.35;;
20734;SDS011;10528;52.124;5.196;2023-06-22T09:02:11;9.18;;;5.80;;
20734;SDS011;10528;52.124;5.196;2023-06-22T09:04:38;9.63;;;5.40;;
20734;SDS011;10528;52.124;5.196;2023-06-22T09:07:05;7.30;;;4.88;;
20734;SDS011;10528;52.124;5.196;2023-06-22T09:09:32;7.68;;;5.00;;
20734;SDS011;10528;52.124;5.196;2023-06-22T09:11:59;9.63;;;5.40;;
20734;SDS011;10528;52.124;5.196;2023-06-22T09:14:26;6.32;;;5.22;;
20734;SDS011;10528;52.124;5.196;2023-06-22T09:16:53;8.57;;;6.32;;
20734;SDS011;10528;52.124;5.196;2023-06-22T09:19:20;7.13;;;5.07;;
20734;SDS011;10528;52.124;5.196;2023-06-22T09:21:47;8.45;;;5.70;;
20734;SDS011;10528;52.124;5.196;2023-06-22T09:24:14;9.48;;;5.43;;
20734;SDS011;10528;52.124;5.196;2023-06-22T09:26:41;8.15;;;6.00;;
20734;SDS011;10528;52.124;5.196;2023-06-22T09:29:07;6.97;;;5.72;;
20734;SDS011;10528;52.124;5.196;2023-06-22T09:31:35;6.93;;;4.90;;
20734;SDS011;10528;52.124;5.196;2023-06-22T09:34:02;7.00;;;4.47;;
20734;SDS011;10528;52.124;5.196;2023-06-22T09:36:29;6.10;;;3.83;;
20734;SDS011;10528;52.124;5.196;2023-06-22T09:38:56;9.18;;;6.60;;
20734;SDS011;10528;52.124;5.196;2023-06-22T09:41:24;7.35;;;5.38;;
20734;SDS011;10528;52.124;5.196;2023-06-22T09:43:51;9.20;;;5.30;;
20734;SDS011;10528;52.124;5.196;2023-06-22T09:46:22;9.82;;;6.63;;
20734;SDS011;10528;52.124;5.196;2023-06-22T09:48:51;10.10;;;8.00;;
20734;SDS011;10528;52.124;5.196;2023-06-22T09:51:18;8.10;;;5.57;;
20734;SDS011;10528;52.124;5.196;2023-06-22T09:53:47;7.30;;;4.70;;
20734;SDS011;10528;52.124;5.196;2023-06-22T09:56:14;5.90;;;3.53;;
20734;SDS011;10528;52.124;5.196;2023-06-22T09:58:42;5.38;;;3.80;;
20734;SDS011;10528;52.124;5.196;2023-06-22T10:01:10;4.90;;;4.10;;
20734;SDS011;10528;52.124;5.196;2023-06-22T10:03:37;5.65;;;4.15;;
20734;SDS011;10528;52.124;5.196;2023-06-22T10:06:04;6.57;;;4.43;;
20734;SDS011;10528;52.124;5.196;2023-06-22T10:08:31;6.20;;;5.35;;
20734;SDS011;10528;52.124;5.196;2023-06-22T10:10:58;6.90;;;5.20;;
20734;SDS011;10528;52.124;5.196;2023-06-22T10:13:25;8.63;;;5.60;;
20734;SDS011;10528;52.124;5.196;2023-06-22T10:15:52;9.48;;;6.20;;
20734;SDS011;10528;52.124;5.196;2023-06-22T10:18:19;9.50;;;6.03;;
20734;SDS011;10528;52.124;5.196;2023-06-22T10:20:47;8.13;;;6.18;;
20734;SDS011;10528;52.124;5.196;2023-06-22T10:23:20;7.10;;;5.90;;
20734;SDS011;10528;52.124;5.196;2023-06-22T10:25:48;7.90;;;5.43;;
20734;SDS011;10528;52.124;5.196;2023-06-22T10:28:15;7.57;;;5.30;;
20734;SDS011;10528;52.124;5.196;2023-06-22T10:30:42;8.05;;;5.05;;
20734;SDS011;10528;52.124;5.196;2023-06-22T10:33:11;6.72;;;5.10;;
20734;SDS011;10528;52.124;5.196;2023-06-22T10:35:38;5.82;;;4.53;;
20734;SDS011;10528;52.124;5.196;2023-06-22T10:38:05;7.55;;;5.70;;
20734;SDS011;10528;52.124;5.196;2023-06-22T10:40:32;8.52;;;5.47;;
20734;SDS011;10528;52.124;5.196;2023-06-22T10:42:59;7.70;;;5.28;;
20734;SDS011;10528;52.124;5.196;2023-06-22T10:45:26;6.22;;;4.72;;
20734;SDS011;10528;52.124;5.196;2023-06-22T10:47:55;6.45;;;4.70;;
20734;SDS011;10528;52.124;5.196;2023-06-22T10:50:22;7.70;;;4.40;;
20734;SDS011;10528;52.124;5.196;2023-06-22T10:52:50;7.53;;;4.75;;
20734;SDS011;10528;52.124;5.196;2023-06-22T10:55:17;7.97;;;4.53;;
20734;SDS011;10528;52.124;5.196;2023-06-22T10:57:45;6.97;;;5.03;;
20734;SDS011;10528;52.124;5.196;2023-06-22T11:00:13;8.98;;;5.07;;
20734;SDS011;10528;52.124;5.196;2023-06-22T11:02:42;7.78;;;4.88;;
20734;SDS011;10528;52.124;5.196;2023-06-22T11:05:10;6.25;;;4.63;;
20734;SDS011;10528;52.124;5.196;2023-06-22T11:07:37;9.75;;;5.70;;
20734;SDS011;10528;52.124;5.196;2023-06-22T11:10:12;8.55;;;5.07;;
20734;SDS011;10528;52.124;5.196;2023-06-22T11:12:39;7.93;;;4.90;;
20734;SDS011;10528;52.124;5.196;2023-06-22T11:15:08;6.60;;;5.03;;
20734;SDS011;10528;52.124;5.196;2023-06-22T11:17:35;9.38;;;4.38;;
20734;SDS011;10528;52.124;5.196;2023-06-22T11:20:02;6.85;;;4.68;;
20734;SDS011;10528;52.124;5.196;2023-06-22T11:22:38;6.53;;;5.25;;
20734;SDS011;10528;52.124;5.196;2023-06-22T11:25:06;6.90;;;4.32;;
20734;SDS011;10528;52.124;5.196;2023-06-22T11:27:34;6.15;;;4.75;;
20734;SDS011;10528;52.124;5.196;2023-06-22T11:30:01;9.23;;;4.60;;
20734;SDS011;10528;52.124;5.196;2023-06-22T11:32:28;7.43;;;4.60;;
20734;SDS011;10528;52.124;5.196;2023-06-22T11:34:56;8.05;;;4.90;;
20734;SDS011;10528;52.124;5.196;2023-06-22T11:37:23;6.63;;;4.07;;
20734;SDS011;10528;52.124;5.196;2023-06-22T11:39:50;8.52;;;5.45;;
20734;SDS011;10528;52.124;5.196;2023-06-22T11:42:31;8.10;;;4.70;;
20734;SDS011;10528;52.124;5.196;2023-06-22T11:44:58;7.50;;;4.82;;
20734;SDS011;10528;52.124;5.196;2023-06-22T11:47:26;6.47;;;4.50;;
20734;SDS011;10528;52.124;5.196;2023-06-22T11:49:53;6.75;;;4.97;;
20734;SDS011;10528;52.124;5.196;2023-06-22T11:52:20;8.68;;;4.93;;
20734;SDS011;10528;52.124;5.196;2023-06-22T11:54:47;8.85;;;4.85;;
20734;SDS011;10528;52.124;5.196;2023-06-22T11:57:14;10.30;;;5.22;;
20734;SDS011;10528;52.124;5.196;2023-06-22T11:59:41;6.97;;;5.18;;
20734;SDS011;10528;52.124;5.196;2023-06-22T12:02:08;8.98;;;6.40;;
20734;SDS011;10528;52.124;5.196;2023-06-22T12:04:36;8.63;;;6.40;;
20734;SDS011;10528;52.124;5.196;2023-06-22T12:07:04;9.15;;;6.95;;
20734;SDS011;10528;52.124;5.196;2023-06-22T12:09:32;9.20;;;7.68;;
20734;SDS011;10528;52.124;5.196;2023-06-22T12:11:59;8.32;;;6.47;;
20734;SDS011;10528;52.124;5.196;2023-06-22T12:14:26;9.77;;;6.78;;
20734;SDS011;10528;52.124;5.196;2023-06-22T12:16:55;8.68;;;6.78;;
20734;SDS011;10528;52.124;5.196;2023-06-22T12:19:23;7.65;;;5.90;;
20734;SDS011;10528;52.124;5.196;2023-06-22T12:21:50;9.68;;;6.68;;
20734;SDS011;10528;52.124;5.196;2023-06-22T12:24:16;8.27;;;6.35;;
20734;SDS011;10528;52.124;5.196;2023-06-22T12:26:43;9.23;;;6.57;;
20734;SDS011;10528;52.124;5.196;2023-06-22T12:29:10;8.75;;;6.75;;
20734;SDS011;10528;52.124;5.196;2023-06-22T12:31:37;9.23;;;6.32;;
20734;SDS011;10528;52.124;5.196;2023-06-22T12:34:05;11.02;;;7.13;;
20734;SDS011;10528;52.124;5.196;2023-06-22T12:36:32;8.35;;;6.60;;
20734;SDS011;10528;52.124;5.196;2023-06-22T12:38:59;12.57;;;6.90;;
20734;SDS011;10528;52.124;5.196;2023-06-22T12:41:26;9.20;;;6.82;;
20734;SDS011;10528;52.124;5.196;2023-06-22T12:43:53;9.60;;;7.13;;
20734;SDS011;10528;52.124;5.196;2023-06-22T12:46:20;8.40;;;6.53;;
20734;SDS011;10528;52.124;5.196;2023-06-22T12:48:47;10.55;;;7.15;;
20734;SDS011;10528;52.124;5.196;2023-06-22T12:51:20;10.15;;;7.15;;
20734;SDS011;10528;52.124;5.196;2023-06-22T12:53:48;9.38;;;6.90;;
20734;SDS011;10528;52.124;5.196;2023-06-22T12:56:15;10.57;;;7.18;;
20734;SDS011;10528;52.124;5.196;2023-06-22T12:58:42;11.63;;;8.15;;
20734;SDS011;10528;52.124;5.196;2023-06-22T13:01:09;9.65;;;7.78;;
20734;SDS011;10528;52.124;5.196;2023-06-22T13:03:36;10.45;;;7.03;;
20734;SDS011;10528;52.124;5.196;2023-06-22T13:06:03;12.20;;;8.05;;
20734;SDS011;10528;52.124;5.196;2023-06-22T13:08:30;11.80;;;8.63;;
20734;SDS011;10528;52.124;5.196;2023-06-22T13:11:17;12.05;;;8.20;;
20734;SDS011;10528;52.124;5.196;2023-06-22T13:13:44;11.25;;;8.70;;
20734;SDS011;10528;52.124;5.196;2023-06-22T13:16:12;13.80;;;9.35;;
20734;SDS011;10528;52.124;5.196;2023-06-22T13:18:39;12.65;;;9.55;;
20734;SDS011;10528;52.124;5.196;2023-06-22T13:21:06;12.38;;;10.35;;
20734;SDS011;10528;52.124;5.196;2023-06-22T13:23:33;10.85;;;9.25;;
20734;SDS011;10528;52.124;5.196;2023-06-22T13:26:00;11.40;;;9.80;;
20734;SDS011;10528;52.124;5.196;2023-06-22T13:28:27;12.80;;;9.95;;
20734;SDS011;10528;52.124;5.196;2023-06-22T13:30:56;14.75;;;10.20;;
20734;SDS011;10528;52.124;5.196;2023-06-22T13:33:23;12.30;;;9.90;;
20734;SDS011;10528;52.124;5.196;2023-06-22T13:35:50;11.20;;;9.45;;
20734;SDS011;10528;52.124;5.196;2023-06-22T13:38:17;14.32;;;10.73;;
20734;SDS011;10528;52.124;5.196;2023-06-22T13:40:43;11.68;;;10.35;;
20734;SDS011;10528;52.124;5.196;2023-06-22T13:43:11;11.73;;;9.70;;
20734;SDS011;10528;52.124;5.196;2023-06-22T13:45:37;12.82;;;10.15;;
20734;SDS011;10528;52.124;5.196;2023-06-22T13:48:05;14.23;;;10.88;;
20734;SDS011;10528;52.124;5.196;2023-06-22T13:50:32;13.93;;;10.38;;
20734;SDS011;10528;52.124;5.196;2023-06-22T13:52:59;12.13;;;10.55;;
20734;SDS011;10528;52.124;5.196;2023-06-22T13:55:26;12.23;;;10.43;;
20734;SDS011;10528;52.124;5.196;2023-06-22T13:57:53;11.10;;;9.82;;
20734;SDS011;10528;52.124;5.196;2023-06-22T14:00:20;12.82;;;10.48;;
20734;SDS011;10528;52.124;5.196;2023-06-22T14:02:47;12.40;;;10.32;;
20734;SDS011;10528;52.124;5.196;2023-06-22T14:05:14;13.82;;;10.30;;
20734;SDS011;10528;52.124;5.196;2023-06-22T14:07:41;12.52;;;10.57;;
20734;SDS011;10528;52.124;5.196;2023-06-22T14:10:09;13.75;;;10.13;;
20734;SDS011;10528;52.124;5.196;2023-06-22T14:12:36;11.88;;;10.68;;
20734;SDS011;10528;52.124;5.196;2023-06-22T14:15:03;11.70;;;9.98;;
20734;SDS011;10528;52.124;5.196;2023-06-22T14:17:30;13.00;;;10.00;;
20734;SDS011;10528;52.124;5.196;2023-06-22T14:19:57;14.77;;;11.15;;
20734;SDS011;10528;52.124;5.196;2023-06-22T14:22:24;14.65;;;11.93;;
20734;SDS011;10528;52.124;5.196;2023-06-22T14:24:53;13.23;;;10.82;;
20734;SDS011;10528;52.124;5.196;2023-06-22T14:27:20;12.98;;;10.45;;
20734;SDS011;10528;52.124;5.196;2023-06-22T14:29:47;12.07;;;10.10;;
20734;SDS011;10528;52.124;5.196;2023-06-22T14:32:14;13.10;;;10.30;;
20734;SDS011;10528;52.124;5.196;2023-06-22T14:34:41;14.57;;;11.25;;
20734;SDS011;10528;52.124;5.196;2023-06-22T14:37:08;11.85;;;10.27;;
20734;SDS011;10528;52.124;5.196;2023-06-22T14:39:39;14.45;;;10.52;;
20734;SDS011;10528;52.124;5.196;2023-06-22T14:42:06;12.45;;;10.95;;
20734;SDS011;10528;52.124;5.196;2023-06-22T14:44:34;12.48;;;11.05;;
20734;SDS011;10528;52.124;5.196;2023-06-22T14:47:01;11.68;;;9.95;;